Skip Navigation Links Skip Navigation Links

Current Weather

Eureka, Nunavut

For information only: do not use for flight planning or navigation.
Latest weather
Observation time Saturday, September 22, 2018 10:00 AM CDT
Local time Saturday, September 22, 2018 10:58 AM CDT
Flight conditions Marginal Visual Meteorological Conditions
Winds
Wind direction Southeast (140°)
Wind speed 10 mph
Visibility 15 mi.
Sky condition
Ceiling 2,200 ft. broken clouds
Cloud layer broken clouds 2,200 ft.
Cloud layer broken clouds 4,500 ft.
Temperature 23°F
Dewpoint 18°F
Altimeter 29.88 in.Hg
Derived measurements
Relative humidity 79%
Wind chill 12°F
Density altitude -2337 ft.
Sea-level pressure 29.89 in.Hg
METAR CWEU 221500Z 14009KT 15SM BKN022 BKN045 M05/M08 A2988 RMK SC6SC1 SLP121

Settings

Location code

InnerDrive.Weather 4.0.6770.0 Release CLR 4.0.30319.42000
Copyright ©2018 Inner Drive Technology. All rights reserved. Portions Copyright ©1986-2018 David Braverman.

Find weather

Site navigation


Skip Navigation Links

Place info

Page info

PayPal - The safer, easier way to pay online!

Return home.

Copyright ©2018 Inner Drive Technology. Purveyors of fine, hand-crafted computer software. Page printed 2018-09-22T15:58:02 UTC.